Time;durP1;ratioP1;P1;durP2;ratioP2;P2;SDS_P1;SDS_P2;PMS_P1;PMS_P2;Temp;Humidity;BMP_temperature;BMP_pressure;BME280_temperature;BME280_humidity;BME280_pressure;Samples;Min_cycle;Max_cycle;Signal;HPM_P1;HPM_P2
2022/12/19 00:01:04;;;;;;;36.35;23.17;;;1.00;99.90;;;;;;5073260;28;20055;-70
2022/12/19 00:03:29;;;;;;;37.13;22.98;;;1.00;99.90;;;;;;5073017;28;20048;-70
2022/12/19 00:05:55;;;;;;;36.33;22.38;;;1.00;99.90;;;;;;5072859;28;20067;-70
2022/12/19 00:08:20;;;;;;;39.17;23.35;;;1.00;99.90;;;;;;5072840;28;20098;-70
2022/12/19 00:11:00;;;;;;;38.33;23.98;;;1.10;99.90;;;;;;5072758;28;20044;-70
2022/12/19 00:13:27;;;;;;;39.00;22.85;;;1.10;99.90;;;;;;5072820;28;20040;-70
2022/12/19 00:15:53;;;;;;;38.78;23.80;;;1.10;99.90;;;;;;5072615;28;20040;-70
2022/12/19 00:18:18;;;;;;;34.33;22.52;;;1.10;99.90;;;;;;5072630;28;20036;-70
2022/12/19 00:20:44;;;;;;;35.97;22.42;;;1.10;99.90;;;;;;5072656;28;20094;-70
2022/12/19 00:23:10;;;;;;;36.33;22.88;;;1.20;99.90;;;;;;5072246;28;20048;-70
2022/12/19 00:25:35;;;;;;;36.20;22.60;;;1.20;99.90;;;;;;5072432;28;20052;-70
2022/12/19 00:28:04;;;;;;;34.83;21.63;;;1.20;99.90;;;;;;5072488;28;20079;-70
2022/12/19 00:30:29;;;;;;;39.78;23.70;;;1.20;99.90;;;;;;5072369;28;20123;-71
2022/12/19 00:32:55;;;;;;;34.28;21.95;;;1.20;99.90;;;;;;5072383;28;20115;-70
2022/12/19 00:35:20;;;;;;;38.17;23.55;;;1.30;99.90;;;;;;5072284;28;20044;-70
2022/12/19 00:37:46;;;;;;;36.67;23.02;;;1.20;99.90;;;;;;5072319;28;20044;-70
2022/12/19 00:40:12;;;;;;;37.90;22.83;;;1.30;99.90;;;;;;5072240;28;20047;-70
2022/12/19 00:42:37;;;;;;;36.20;22.83;;;1.30;99.90;;;;;;5073523;28;20028;-70
2022/12/19 00:45:03;;;;;;;35.20;22.10;;;1.30;99.90;;;;;;5072130;28;20436;-70
2022/12/19 00:47:28;;;;;;;39.38;23.08;;;1.40;99.90;;;;;;5072330;28;20024;-70
2022/12/19 00:49:54;;;;;;;36.03;22.02;;;1.40;99.90;;;;;;5072106;28;20489;-70
2022/12/19 00:52:19;;;;;;;33.28;21.30;;;1.40;99.90;;;;;;5073275;28;20071;-70
2022/12/19 00:54:46;;;;;;;33.45;21.40;;;1.40;99.90;;;;;;5071956;28;20045;-70
2022/12/19 00:57:11;;;;;;;34.78;22.55;;;1.40;99.90;;;;;;5072073;28;20040;-70
2022/12/19 00:59:37;;;;;;;35.95;23.40;;;1.50;99.90;;;;;;5073567;28;20032;-70
2022/12/19 01:02:02;;;;;;;34.78;21.35;;;1.50;99.90;;;;;;5072213;28;20034;-70
2022/12/19 01:04:28;;;;;;;35.08;21.90;;;1.50;99.90;;;;;;5073451;28;20492;-70
2022/12/19 01:06:54;;;;;;;34.08;20.92;;;1.50;99.90;;;;;;5071867;28;20040;-70
2022/12/19 01:09:21;;;;;;;37.42;22.95;;;1.50;99.90;;;;;;5072136;28;20136;-70
2022/12/19 01:14:31;;;;;;;37.63;23.70;;;1.60;99.90;;;;;;5073048;28;20044;-70
2022/12/19 01:16:56;;;;;;;36.42;22.20;;;1.60;99.90;;;;;;5055067;28;20128;-70
2022/12/19 01:19:22;;;;;;;35.58;21.60;;;1.60;99.90;;;;;;5072050;28;20090;-70
2022/12/19 01:21:47;;;;;;;33.00;20.55;;;1.60;99.90;;;;;;5071732;28;20490;-70
2022/12/19 01:24:13;;;;;;;34.58;21.52;;;1.60;99.90;;;;;;5072032;28;20052;-70
2022/12/19 01:26:38;;;;;;;33.15;21.92;;;1.70;99.90;;;;;;5071660;28;20494;-70
2022/12/19 01:29:04;;;;;;;38.55;22.38;;;1.60;99.90;;;;;;5071686;28;20044;-70
2022/12/19 01:31:29;;;;;;;36.70;23.42;;;1.70;99.90;;;;;;5071689;28;20067;-70
2022/12/19 01:33:57;;;;;;;35.97;22.35;;;1.70;99.90;;;;;;5071626;28;20485;-70
2022/12/19 01:36:23;;;;;;;33.70;21.73;;;1.70;99.90;;;;;;5075193;28;20049;-70
2022/12/19 01:38:49;;;;;;;36.05;22.27;;;1.70;99.90;;;;;;5075712;28;20044;-70
2022/12/19 01:41:14;;;;;;;36.30;22.80;;;1.70;99.90;;;;;;5075722;28;20040;-70
2022/12/19 01:44:12;;;;;;;35.20;22.40;;;1.70;99.90;;;;;;5075651;28;20100;-70
2022/12/19 01:46:50;;;;;;;34.03;21.73;;;1.70;99.90;;;;;;5042309;28;20051;-70
2022/12/19 01:49:34;;;;;;;34.97;22.42;;;1.70;99.90;;;;;;5075573;28;20076;-70
2022/12/19 01:52:04;;;;;;;36.22;22.58;;;1.70;99.90;;;;;;5075387;28;20581;-70
2022/12/19 01:54:33;;;;;;;34.47;21.58;;;1.70;99.90;;;;;;5075387;28;20405;-70
2022/12/19 01:57:01;;;;;;;38.90;24.13;;;1.70;99.90;;;;;;5075396;28;20041;-70
2022/12/19 01:59:50;;;;;;;37.58;23.23;;;1.70;99.90;;;;;;5075618;28;20048;-70
2022/12/19 02:02:31;;;;;;;39.08;23.40;;;1.80;99.90;;;;;;5075327;28;20083;-70
2022/12/19 02:04:57;;;;;;;35.22;22.48;;;1.80;99.90;;;;;;5075153;28;20044;-70
2022/12/19 02:07:25;;;;;;;37.50;21.92;;;1.80;99.90;;;;;;5075181;28;20097;-70
2022/12/19 02:09:54;;;;;;;38.28;23.30;;;1.70;99.90;;;;;;5075283;28;20041;-70
2022/12/19 02:12:20;;;;;;;39.63;23.75;;;1.80;99.90;;;;;;5075103;28;20051;-70
2022/12/19 02:14:46;;;;;;;37.17;23.45;;;1.80;99.90;;;;;;5075222;28;20040;-70
2022/12/19 02:17:36;;;;;;;40.75;24.00;;;1.80;99.90;;;;;;5074997;28;20042;-70
2022/12/19 02:20:08;;;;;;;39.67;24.42;;;1.80;99.90;;;;;;5075008;28;20083;-70
2022/12/19 02:23:01;;;;;;;43.50;25.50;;;1.70;99.90;;;;;;5075175;28;20105;-70
2022/12/19 02:25:43;;;;;;;44.90;25.92;;;1.80;99.90;;;;;;5075082;28;20044;-70
2022/12/19 02:28:14;;;;;;;47.70;26.70;;;1.70;99.90;;;;;;5075150;28;20048;-70
2022/12/19 02:31:05;;;;;;;48.10;27.05;;;1.80;99.90;;;;;;5074868;28;20105;-70
2022/12/19 02:33:44;;;;;;;49.85;28.10;;;1.70;99.90;;;;;;5074698;28;20047;-70
2022/12/19 02:36:20;;;;;;;48.22;27.48;;;1.70;99.90;;;;;;5074639;28;20048;-70
2022/12/19 02:39:01;;;;;;;53.22;28.13;;;1.70;99.90;;;;;;5075762;28;20048;-70
2022/12/19 02:42:08;;;;;;;54.22;29.48;;;1.70;99.90;;;;;;5074903;28;20078;-70
2022/12/19 02:44:42;;;;;;;46.17;27.15;;;1.70;99.90;;;;;;5017329;28;20045;-70
2022/12/19 02:47:08;;;;;;;52.92;28.80;;;1.70;99.90;;;;;;5017288;28;20054;-70
2022/12/19 02:49:36;;;;;;;57.53;31.33;;;1.70;99.90;;;;;;5017109;28;20049;-70
2022/12/19 02:52:32;;;;;;;55.58;29.13;;;1.70;99.90;;;;;;5017021;28;20056;-70
2022/12/19 02:55:08;;;;;;;59.22;30.10;;;1.70;99.90;;;;;;5033489;28;20182;-70
2022/12/19 02:57:42;;;;;;;52.28;28.95;;;1.70;99.90;;;;;;5034188;28;20050;-70
2022/12/19 03:00:12;;;;;;;54.22;29.95;;;1.70;99.90;;;;;;5017146;28;20057;-70
2022/12/19 03:02:43;;;;;;;54.25;30.10;;;1.70;99.90;;;;;;5016857;28;20052;-70
2022/12/19 03:05:35;;;;;;;55.63;30.45;;;1.80;99.90;;;;;;5016956;28;20502;-70
2022/12/19 03:08:19;;;;;;;50.92;30.08;;;1.80;99.90;;;;;;5017080;28;20049;-70
2022/12/19 03:11:02;;;;;;;56.30;30.65;;;1.80;99.90;;;;;;5016743;28;20053;-70
2022/12/19 03:13:36;;;;;;;57.00;30.95;;;1.80;99.90;;;;;;5016650;28;20045;-70
2022/12/19 03:16:03;;;;;;;60.05;31.33;;;1.80;99.90;;;;;;5016559;28;20045;-70
2022/12/19 03:18:31;;;;;;;60.13;31.70;;;1.80;99.90;;;;;;5042934;28;20056;-70
2022/12/19 03:21:28;;;;;;;62.55;33.60;;;1.90;99.90;;;;;;5073861;28;20055;-70
2022/12/19 03:23:54;;;;;;;62.35;33.30;;;1.90;99.90;;;;;;5074047;28;20076;-70
2022/12/19 03:26:22;;;;;;;56.30;32.92;;;1.90;99.90;;;;;;5073698;28;20058;-70
2022/12/19 03:29:14;;;;;;;63.92;32.55;;;1.90;99.90;;;;;;5073701;28;20054;-70
2022/12/19 03:31:41;;;;;;;54.90;31.23;;;2.00;99.90;;;;;;5073584;28;20493;-70
2022/12/19 03:34:29;;;;;;;67.72;34.55;;;1.90;99.90;;;;;;5074910;28;20511;-70
2022/12/19 03:37:00;;;;;;;60.42;33.42;;;2.00;99.90;;;;;;5056891;28;20041;-70
2022/12/19 03:39:28;;;;;;;64.35;33.88;;;2.00;99.90;;;;;;5073530;28;20047;-70
2022/12/19 03:44:42;;;;;;;69.80;36.60;;;2.10;99.90;;;;;;5073277;28;20416;-71
2022/12/19 03:47:26;;;;;;;64.65;35.92;;;2.10;99.90;;;;;;5074503;28;20048;-70
2022/12/19 03:49:52;;;;;;;68.57;35.22;;;2.10;99.90;;;;;;5073240;28;20498;-70
2022/12/19 03:52:45;;;;;;;62.42;34.63;;;2.20;99.90;;;;;;5073124;28;20064;-70
2022/12/19 03:55:20;;;;;;;66.00;35.53;;;2.20;99.90;;;;;;5073364;28;20032;-70
2022/12/19 03:57:55;;;;;;;68.03;36.05;;;2.20;99.90;;;;;;5072574;28;20052;-70
2022/12/19 04:00:23;;;;;;;67.90;36.13;;;2.20;99.90;;;;;;5073067;28;20104;-70
2022/12/19 04:02:51;;;;;;;64.03;35.70;;;2.30;99.90;;;;;;5072989;28;20501;-70
2022/12/19 04:05:23;;;;;;;68.43;36.17;;;2.30;99.90;;;;;;5073120;28;20071;-70
2022/12/19 04:07:52;;;;;;;68.83;38.40;;;2.40;99.90;;;;;;5072971;28;20140;-70
2022/12/19 04:10:20;;;;;;;70.00;38.88;;;2.30;99.90;;;;;;5074293;28;20051;-70
2022/12/19 04:13:06;;;;;;;69.75;38.45;;;2.40;99.90;;;;;;5072809;28;20052;-70
2022/12/19 04:15:57;;;;;;;65.25;37.78;;;2.40;99.90;;;;;;5072762;28;20075;-70
2022/12/19 04:18:23;;;;;;;74.63;39.53;;;2.40;99.90;;;;;;5072767;28;20481;-70
2022/12/19 04:20:57;;;;;;;71.88;39.80;;;2.50;99.90;;;;;;5072935;28;20047;-70
2022/12/19 04:23:31;;;;;;;70.15;39.38;;;2.50;99.90;;;;;;5072926;28;20059;-70
2022/12/19 04:26:00;;;;;;;73.03;39.25;;;2.50;99.90;;;;;;5072518;28;20112;-70
2022/12/19 04:28:44;;;;;;;73.50;39.75;;;2.50;99.90;;;;;;5072531;28;20051;-70
2022/12/19 04:31:14;;;;;;;69.45;38.50;;;2.60;99.90;;;;;;5072462;28;20497;-70
2022/12/19 04:33:39;;;;;;;72.80;39.25;;;2.60;99.90;;;;;;5072400;28;20044;-69
2022/12/19 04:36:05;;;;;;;73.93;39.20;;;2.60;99.90;;;;;;5072334;28;20068;-70
2022/12/19 04:38:31;;;;;;;64.28;36.85;;;2.60;99.90;;;;;;5072356;28;20036;-70
2022/12/19 04:40:56;;;;;;;61.55;36.08;;;2.70;99.90;;;;;;5072290;28;20182;-70
2022/12/19 04:43:22;;;;;;;65.63;36.92;;;2.70;99.90;;;;;;5072247;28;20051;-70
2022/12/19 04:45:48;;;;;;;67.07;35.92;;;2.70;99.90;;;;;;5072415;28;20056;-70
2022/12/19 04:48:13;;;;;;;64.10;35.83;;;2.70;99.90;;;;;;5072378;28;20044;-70
2022/12/19 04:50:39;;;;;;;64.63;35.97;;;2.80;99.90;;;;;;5072251;28;20043;-70
2022/12/19 04:53:05;;;;;;;61.08;35.47;;;2.90;99.90;;;;;;5072140;28;20505;-70
2022/12/19 04:55:31;;;;;;;59.38;34.67;;;2.90;99.90;;;;;;5072041;28;20040;-70
2022/12/19 04:57:57;;;;;;;54.90;33.45;;;2.90;99.90;;;;;;5072066;28;20042;-70
2022/12/19 05:00:23;;;;;;;60.20;35.45;;;2.90;99.90;;;;;;5072028;28;20044;-70
2022/12/19 05:02:48;;;;;;;58.70;34.00;;;3.00;99.90;;;;;;5071993;28;20040;-70
2022/12/19 05:05:15;;;;;;;61.92;34.53;;;2.90;99.90;;;;;;5072174;28;20106;-70
2022/12/19 05:07:41;;;;;;;65.28;36.30;;;3.00;99.90;;;;;;5071984;28;20115;-70
2022/12/19 05:10:07;;;;;;;67.18;36.25;;;3.00;99.90;;;;;;5070944;28;20128;-70
2022/12/19 05:12:32;;;;;;;67.40;36.50;;;2.90;99.90;;;;;;5073122;28;20037;-70
2022/12/19 05:14:58;;;;;;;65.47;35.90;;;3.00;99.90;;;;;;5071793;28;20047;-70
2022/12/19 05:17:23;;;;;;;68.93;36.75;;;3.00;99.90;;;;;;5071832;28;20052;-70
2022/12/19 05:19:49;;;;;;;62.28;35.47;;;3.00;99.90;;;;;;5071844;28;20090;-70
2022/12/19 05:22:15;;;;;;;65.70;37.00;;;3.00;99.90;;;;;;5071763;28;20068;-70
2022/12/19 05:24:40;;;;;;;64.75;36.13;;;3.10;99.90;;;;;;5071704;28;20079;-70
2022/12/19 05:27:06;;;;;;;65.70;36.15;;;3.00;99.90;;;;;;5071997;28;20124;-70
2022/12/19 05:29:32;;;;;;;61.90;35.40;;;3.10;99.90;;;;;;5071748;28;20040;-70
2022/12/19 05:31:57;;;;;;;67.15;35.70;;;3.10;99.90;;;;;;5071646;28;20045;-70
2022/12/19 05:34:23;;;;;;;63.97;35.80;;;3.20;99.90;;;;;;5071885;28;20043;-70
2022/12/19 05:36:49;;;;;;;60.22;34.67;;;3.10;99.90;;;;;;5071858;28;20089;-70
2022/12/19 05:39:15;;;;;;;66.20;35.70;;;3.10;99.90;;;;;;5071627;28;20501;-70
2022/12/19 05:41:40;;;;;;;63.47;35.25;;;3.20;99.90;;;;;;5071586;28;20131;-70
2022/12/19 05:44:06;;;;;;;64.43;33.97;;;3.30;99.90;;;;;;5072804;28;20036;-70
2022/12/19 05:46:32;;;;;;;67.07;34.13;;;3.20;99.90;;;;;;5071387;28;20040;-70
2022/12/19 05:48:58;;;;;;;60.70;33.70;;;3.30;99.90;;;;;;5071782;28;20060;-70
2022/12/19 05:51:24;;;;;;;58.28;32.15;;;3.20;99.90;;;;;;5071413;28;20056;-70
2022/12/19 05:53:49;;;;;;;58.08;33.05;;;3.30;99.90;;;;;;5071463;28;20044;-70
2022/12/19 05:56:18;;;;;;;60.90;33.45;;;3.40;99.90;;;;;;5071392;28;20055;-71
2022/12/19 05:58:44;;;;;;;57.60;31.88;;;3.40;99.90;;;;;;5071673;28;20041;-71
2022/12/19 06:01:13;;;;;;;54.35;30.02;;;3.40;99.90;;;;;;5054682;28;20485;-71
2022/12/19 06:03:39;;;;;;;50.92;28.90;;;3.40;99.90;;;;;;5071389;28;20090;-71
2022/12/19 06:06:11;;;;;;;47.75;28.50;;;3.50;99.90;;;;;;5071591;28;20040;-70
2022/12/19 06:08:37;;;;;;;48.50;27.83;;;3.60;99.90;;;;;;5071687;28;20113;-70
2022/12/19 06:11:03;;;;;;;48.47;27.60;;;3.60;99.90;;;;;;5072498;28;20493;-70
2022/12/19 06:13:29;;;;;;;42.63;27.10;;;3.70;99.90;;;;;;5071323;28;20075;-70
2022/12/19 06:16:05;;;;;;;47.75;27.27;;;3.70;99.90;;;;;;5071480;28;20059;-70
2022/12/19 06:18:31;;;;;;;39.13;24.48;;;3.70;99.90;;;;;;5071252;28;20045;-70
2022/12/19 06:21:09;;;;;;;45.25;27.05;;;3.80;99.90;;;;;;5055640;28;20047;-70
2022/12/19 06:23:35;;;;;;;44.13;26.15;;;3.80;99.90;;;;;;5074964;28;20557;-70
2022/12/19 06:26:03;;;;;;;39.35;25.00;;;3.80;99.90;;;;;;5074819;28;20044;-70
2022/12/19 06:28:30;;;;;;;43.28;25.77;;;3.80;99.90;;;;;;5075073;28;20050;-70
2022/12/19 06:31:00;;;;;;;42.05;24.48;;;3.90;99.90;;;;;;5074900;28;20051;-70
2022/12/19 06:33:28;;;;;;;37.35;24.33;;;3.90;99.90;;;;;;5074823;28;20040;-70
2022/12/19 06:36:02;;;;;;;40.97;25.30;;;3.90;99.90;;;;;;5074888;28;20086;-70
2022/12/19 06:38:29;;;;;;;33.38;21.77;;;4.00;99.90;;;;;;5074673;28;20051;-70
2022/12/19 06:43:39;;;;;;;41.13;23.45;;;4.00;99.90;;;;;;5074561;28;20049;-70
2022/12/19 06:46:05;;;;;;;36.40;22.75;;;4.00;99.90;;;;;;5076036;28;20036;-70
2022/12/19 06:48:31;;;;;;;35.47;21.67;;;4.10;99.90;;;;;;5075632;28;20048;-70
2022/12/19 06:50:56;;;;;;;35.85;22.13;;;4.00;99.90;;;;;;5074361;28;20048;-70
2022/12/19 06:53:22;;;;;;;34.53;21.40;;;4.10;99.90;;;;;;5074728;28;20044;-70
2022/12/19 06:55:50;;;;;;;34.78;22.13;;;4.10;99.90;;;;;;5074308;28;20128;-70
2022/12/19 06:58:16;;;;;;;34.40;21.65;;;4.10;99.90;;;;;;5074261;28;20049;-70
2022/12/19 07:00:42;;;;;;;37.60;23.42;;;4.10;99.90;;;;;;5074238;28;20063;-70
2022/12/19 07:03:12;;;;;;;35.25;22.45;;;4.10;99.90;;;;;;5074221;28;20044;-70
2022/12/19 07:05:38;;;;;;;34.95;22.67;;;4.10;99.90;;;;;;5074165;28;20076;-70
2022/12/19 07:08:04;;;;;;;39.10;23.17;;;4.10;99.90;;;;;;5074125;28;20044;-71
2022/12/19 07:10:30;;;;;;;39.70;23.33;;;4.10;99.90;;;;;;5074033;28;20062;-70
2022/12/19 07:12:55;;;;;;;36.85;22.77;;;4.10;99.90;;;;;;5075286;28;20040;-69
2022/12/19 07:15:21;;;;;;;39.53;23.70;;;4.10;99.90;;;;;;5073960;28;20037;-70
2022/12/19 07:17:47;;;;;;;36.92;23.10;;;4.20;99.90;;;;;;5073926;28;20450;-70
2022/12/19 07:20:14;;;;;;;33.30;21.60;;;4.20;99.90;;;;;;5073933;28;20048;-70
2022/12/19 07:22:41;;;;;;;36.05;22.35;;;4.20;99.90;;;;;;5073845;28;20051;-70
2022/12/19 07:25:07;;;;;;;36.53;22.17;;;4.20;99.90;;;;;;5074038;28;20045;-70
2022/12/19 07:27:34;;;;;;;32.55;21.77;;;4.20;99.90;;;;;;5074018;28;20098;-70
2022/12/19 07:30:00;;;;;;;37.35;22.13;;;4.30;99.90;;;;;;5073607;28;20044;-70
2022/12/19 07:32:25;;;;;;;37.92;22.95;;;4.30;99.90;;;;;;5055996;28;20037;-70
2022/12/19 07:34:54;;;;;;;39.97;22.13;;;4.30;99.90;;;;;;5073547;28;20044;-70
2022/12/19 07:37:20;;;;;;;35.72;22.55;;;4.30;99.90;;;;;;5075109;28;20036;-70
2022/12/19 07:39:46;;;;;;;39.70;22.30;;;4.30;99.90;;;;;;5073505;28;20494;-70
2022/12/19 07:42:12;;;;;;;42.22;23.30;;;4.30;99.90;;;;;;5073715;28;20128;-70
2022/12/19 07:44:38;;;;;;;36.88;23.23;;;4.30;99.90;;;;;;5073314;28;20127;-70
2022/12/19 07:47:03;;;;;;;37.13;22.42;;;4.40;99.90;;;;;;5073246;28;20040;-70
2022/12/19 07:49:29;;;;;;;37.53;23.65;;;4.30;99.90;;;;;;5073367;28;20100;-70
2022/12/19 07:51:54;;;;;;;36.75;23.10;;;4.40;99.90;;;;;;5073198;28;20040;-70
2022/12/19 07:54:20;;;;;;;35.30;22.05;;;4.40;99.90;;;;;;5073237;28;20444;-70
2022/12/19 07:56:45;;;;;;;36.08;22.27;;;4.50;99.90;;;;;;5074580;28;20037;-70
2022/12/19 07:59:11;;;;;;;35.63;22.55;;;4.50;99.90;;;;;;5073155;28;20036;-70
2022/12/19 08:01:37;;;;;;;35.78;22.48;;;4.50;99.90;;;;;;5073067;28;20080;-70
2022/12/19 08:04:03;;;;;;;36.63;23.60;;;4.50;99.90;;;;;;5073000;28;20072;-70
2022/12/19 08:06:29;;;;;;;36.35;23.05;;;4.50;99.90;;;;;;5072945;28;20040;-70
2022/12/19 08:08:54;;;;;;;39.33;23.20;;;4.60;99.90;;;;;;5072898;28;20098;-70
2022/12/19 08:11:25;;;;;;;42.35;23.65;;;4.60;99.90;;;;;;5072820;28;20051;-70
2022/12/19 08:13:51;;;;;;;36.17;22.23;;;4.60;99.90;;;;;;5072849;28;20570;-70
2022/12/19 08:16:17;;;;;;;37.75;22.45;;;4.70;99.90;;;;;;5072697;28;20040;-70
2022/12/19 08:18:43;;;;;;;35.10;22.35;;;4.70;99.90;;;;;;5072734;28;20043;-70
2022/12/19 08:21:09;;;;;;;36.90;23.40;;;4.70;99.90;;;;;;5072968;28;20090;-70
2022/12/19 08:23:35;;;;;;;34.10;21.98;;;4.80;99.90;;;;;;5073221;28;20056;-73
2022/12/19 08:26:03;;;;;;;35.65;22.90;;;4.80;99.90;;;;;;5072537;28;20044;-70
2022/12/19 08:28:31;;;;;;;31.88;21.67;;;4.80;99.90;;;;;;5072758;28;20051;-70
2022/12/19 08:30:56;;;;;;;36.85;22.20;;;4.80;99.90;;;;;;5072577;28;20036;-70
2022/12/19 08:33:22;;;;;;;33.65;20.77;;;4.90;99.90;;;;;;5072746;28;20091;-70
2022/12/19 08:35:48;;;;;;;33.03;21.30;;;4.90;99.90;;;;;;5072334;28;20489;-70
2022/12/19 08:38:13;;;;;;;28.98;21.27;;;5.00;99.90;;;;;;5072375;28;20040;-70
2022/12/19 08:40:39;;;;;;;30.83;20.60;;;5.00;99.90;;;;;;5072899;28;20044;-70
2022/12/19 08:43:04;;;;;;;30.25;21.45;;;5.00;99.90;;;;;;5073583;28;20131;-70
2022/12/19 08:45:30;;;;;;;29.08;20.10;;;5.10;99.90;;;;;;5072521;28;20048;-70
2022/12/19 08:47:55;;;;;;;31.85;21.30;;;5.10;99.90;;;;;;5072130;28;20493;-70
2022/12/19 08:50:21;;;;;;;30.98;19.92;;;5.10;99.90;;;;;;5072143;28;20041;-70
2022/12/19 08:52:47;;;;;;;30.55;20.80;;;5.10;99.90;;;;;;5072185;28;20040;-70
2022/12/19 08:55:12;;;;;;;31.02;20.42;;;5.20;99.90;;;;;;5072356;28;20033;-70
2022/12/19 08:57:38;;;;;;;29.95;19.90;;;5.20;99.90;;;;;;5072143;28;20501;-70
2022/12/19 09:00:04;;;;;;;31.33;21.48;;;5.20;99.90;;;;;;5072104;28;20040;-70
2022/12/19 09:02:30;;;;;;;30.90;20.08;;;5.30;99.90;;;;;;5072074;28;20055;-70
2022/12/19 09:04:55;;;;;;;28.42;20.95;;;5.30;99.90;;;;;;5072183;28;20044;-70
2022/12/19 09:07:21;;;;;;;31.15;21.13;;;5.30;99.90;;;;;;5071998;28;20408;-70
2022/12/19 09:09:47;;;;;;;33.35;21.67;;;5.40;99.90;;;;;;5072230;28;20079;-70
2022/12/19 09:12:14;;;;;;;32.25;21.17;;;5.40;99.90;;;;;;5071842;28;20044;-70
2022/12/19 09:14:39;;;;;;;30.15;21.42;;;5.40;99.90;;;;;;5071803;28;20444;-70
2022/12/19 09:17:05;;;;;;;30.33;22.33;;;5.50;99.90;;;;;;5071876;28;20044;-70
2022/12/19 09:19:31;;;;;;;31.67;22.08;;;5.60;99.90;;;;;;5072117;28;20123;-70
2022/12/19 09:21:57;;;;;;;31.27;21.98;;;5.60;99.90;;;;;;5073054;28;20497;-70
2022/12/19 09:24:22;;;;;;;33.25;22.50;;;5.70;99.90;;;;;;5071797;28;20124;-70
2022/12/19 09:26:48;;;;;;;30.77;22.23;;;5.80;99.90;;;;;;5073002;28;20074;-71
2022/12/19 09:29:13;;;;;;;30.40;22.95;;;5.80;99.90;;;;;;5073230;28;20032;-70
2022/12/19 09:31:39;;;;;;;27.60;21.98;;;5.80;99.90;;;;;;5072949;28;20472;-71
2022/12/19 09:34:05;;;;;;;32.90;22.85;;;5.90;99.90;;;;;;5071724;28;20037;-71
2022/12/19 09:36:31;;;;;;;31.08;21.75;;;6.00;99.90;;;;;;5071607;28;20040;-71
2022/12/19 09:38:57;;;;;;;31.80;21.83;;;6.10;99.90;;;;;;5071906;28;20036;-71
2022/12/19 09:41:50;;;;;;;34.33;22.58;;;6.00;99.90;;;;;;5071973;28;20036;-71
2022/12/19 09:44:18;;;;;;;33.50;22.83;;;6.10;99.90;;;;;;5071743;28;20055;-70
2022/12/19 09:46:54;;;;;;;36.47;22.25;;;6.10;99.90;;;;;;5071390;28;20524;-71
2022/12/19 09:49:28;;;;;;;31.15;22.00;;;6.20;99.90;;;;;;5073255;28;20040;-71
2022/12/19 09:52:09;;;;;;;27.13;21.17;;;6.20;99.90;;;;;;5071858;28;20055;-71
2022/12/19 09:54:48;;;;;;;33.15;22.20;;;6.30;99.90;;;;;;5071897;28;20374;-70
2022/12/19 09:57:35;;;;;;;31.10;22.60;;;6.40;99.90;;;;;;5074762;28;20040;-70
2022/12/19 10:00:13;;;;;;;31.50;22.02;;;6.40;99.90;;;;;;5075691;28;20123;-70
2022/12/19 10:03:07;;;;;;;33.35;22.35;;;6.40;99.90;;;;;;5075624;28;20119;-70
2022/12/19 10:05:43;;;;;;;30.20;21.40;;;6.40;99.90;;;;;;5076107;28;20040;-70
2022/12/19 10:08:36;;;;;;;29.17;20.77;;;6.50;99.90;;;;;;5075271;28;20044;-71
2022/12/19 10:11:08;;;;;;;29.65;19.70;;;6.50;99.90;;;;;;5068986;28;20087;-70
2022/12/19 10:13:45;;;;;;;25.45;19.05;;;6.50;99.90;;;;;;5075123;28;20098;-71
2022/12/19 10:16:27;;;;;;;26.33;19.40;;;6.60;99.90;;;;;;5075321;28;20051;-71
2022/12/19 10:19:01;;;;;;;25.38;18.67;;;6.60;99.90;;;;;;5075389;28;20040;-71
2022/12/19 10:21:48;;;;;;;28.05;19.05;;;6.70;99.90;;;;;;5075081;28;20048;-71
2022/12/19 10:24:48;;;;;;;24.27;18.33;;;6.70;99.90;;;;;;5076644;28;20036;-71
2022/12/19 10:27:46;;;;;;;25.55;18.77;;;6.70;99.90;;;;;;5075132;28;20048;-70
2022/12/19 10:30:19;;;;;;;26.55;18.88;;;6.70;99.90;;;;;;5071980;28;20511;-71
2022/12/19 10:32:55;;;;;;;27.63;19.05;;;6.70;99.90;;;;;;5075116;28;20535;-70
2022/12/19 10:35:23;;;;;;;22.42;17.65;;;6.80;99.90;;;;;;5074921;28;20501;-71
2022/12/19 10:38:00;;;;;;;26.35;19.05;;;6.70;99.90;;;;;;5075206;28;20044;-71
2022/12/19 10:40:33;;;;;;;24.65;18.20;;;6.70;99.90;;;;;;5075703;28;20141;-71
2022/12/19 10:43:04;;;;;;;20.88;16.83;;;6.80;99.90;;;;;;5076022;28;20420;-71
2022/12/19 10:45:46;;;;;;;22.55;16.92;;;6.80;99.90;;;;;;5074651;28;20508;-70
2022/12/19 10:48:17;;;;;;;24.50;17.75;;;6.90;99.90;;;;;;5074387;28;20048;-70
2022/12/19 10:50:42;;;;;;;21.85;17.23;;;6.90;99.90;;;;;;5076180;28;20533;-71
2022/12/19 10:53:10;;;;;;;22.67;16.55;;;6.90;99.90;;;;;;5074565;28;20056;-71
2022/12/19 10:55:53;;;;;;;19.48;15.43;;;6.90;99.90;;;;;;5074282;28;20036;-71
2022/12/19 10:58:34;;;;;;;21.05;15.23;;;7.00;99.90;;;;;;5074241;28;20451;-71
2022/12/19 11:01:19;;;;;;;23.40;15.85;;;7.00;99.90;;;;;;5075565;28;20040;-71
2022/12/19 11:03:50;;;;;;;21.10;15.65;;;7.00;99.90;;;;;;5074511;28;20436;-71
2022/12/19 11:06:37;;;;;;;19.75;15.10;;;7.10;99.90;;;;;;5074174;28;20044;-71
2022/12/19 11:09:16;;;;;;;19.50;15.57;;;7.10;99.90;;;;;;5074358;28;20413;-71
2022/12/19 11:11:42;;;;;;;19.60;14.57;;;7.10;99.90;;;;;;5074063;28;20049;-72
2022/12/19 11:14:25;;;;;;;20.10;15.45;;;7.20;99.90;;;;;;5074022;28;20052;-71
2022/12/19 11:16:51;;;;;;;20.20;13.98;;;7.20;99.90;;;;;;5074255;28;20041;-71
2022/12/19 11:19:37;;;;;;;19.27;14.50;;;7.10;99.90;;;;;;5073949;28;20409;-71
2022/12/19 11:22:14;;;;;;;21.08;13.93;;;7.20;99.90;;;;;;5073900;28;20051;-71
2022/12/19 11:24:47;;;;;;;19.50;13.65;;;7.20;99.90;;;;;;5073804;28;20040;-71
2022/12/19 11:27:36;;;;;;;18.73;14.05;;;7.20;99.90;;;;;;5073832;28;20055;-71
2022/12/19 11:30:26;;;;;;;17.80;14.15;;;7.30;99.90;;;;;;5073655;28;20085;-71
2022/12/19 11:33:14;;;;;;;17.80;13.40;;;7.30;99.90;;;;;;5073644;28;20052;-72
2022/12/19 11:35:50;;;;;;;20.17;13.70;;;7.30;99.90;;;;;;5075316;28;20397;-71
2022/12/19 11:38:37;;;;;;;17.98;13.98;;;7.30;99.90;;;;;;5073795;28;20443;-71
2022/12/19 11:41:31;;;;;;;17.63;14.23;;;7.40;99.90;;;;;;5073536;28;20051;-71
2022/12/19 11:44:19;;;;;;;16.58;13.30;;;7.30;99.90;;;;;;5065535;28;20052;-72
2022/12/19 11:46:59;;;;;;;19.83;13.32;;;7.40;99.90;;;;;;5073562;28;20087;-72
2022/12/19 11:49:38;;;;;;;16.77;12.95;;;7.40;99.90;;;;;;5073398;28;20066;-72
2022/12/19 11:52:29;;;;;;;16.95;13.23;;;7.40;99.90;;;;;;5073326;28;20044;-72
2022/12/19 11:55:05;;;;;;;15.45;13.45;;;7.40;99.90;;;;;;5070467;28;20048;-71
2022/12/19 11:57:30;;;;;;;16.10;12.55;;;7.50;99.90;;;;;;5073221;28;20410;-72
2022/12/19 11:59:56;;;;;;;18.27;13.77;;;7.40;99.90;;;;;;5073423;28;20123;-72
2022/12/19 12:02:39;;;;;;;17.42;13.35;;;7.50;99.90;;;;;;5073310;28;20044;-71
2022/12/19 12:05:20;;;;;;;15.07;12.87;;;7.50;99.90;;;;;;5073021;28;20383;-71
2022/12/19 12:07:54;;;;;;;16.92;13.05;;;7.50;99.90;;;;;;5073090;28;20787;-71
2022/12/19 12:10:20;;;;;;;18.50;13.25;;;7.50;99.90;;;;;;5074193;28;20446;-71
2022/12/19 12:12:49;;;;;;;18.58;12.77;;;7.50;99.90;;;;;;5056804;28;20038;-71
2022/12/19 12:15:44;;;;;;;17.85;12.75;;;7.50;99.90;;;;;;5072760;28;20123;-71
2022/12/19 12:18:13;;;;;;;18.08;12.98;;;7.50;99.90;;;;;;5073011;28;20095;-75
2022/12/19 12:21:07;;;;;;;14.32;12.27;;;7.50;99.90;;;;;;5072959;28;20048;-72
2022/12/19 12:23:39;;;;;;;;;;;7.50;99.90;;;;;;5073397;28;20048;-71
2022/12/19 12:26:28;;;;;;;17.48;12.40;;;7.50;99.90;;;;;;5056021;28;19923;-72
2022/12/19 12:29:02;;;;;;;16.88;12.00;;;7.50;99.90;;;;;;5072866;28;20094;-72
2022/12/19 12:31:33;;;;;;;14.32;11.98;;;7.60;99.90;;;;;;5072485;28;20044;-72
2022/12/19 12:34:35;;;;;;;15.82;11.80;;;7.60;99.90;;;;;;5072497;28;20044;-71
2022/12/19 12:37:23;;;;;;;17.77;12.20;;;7.60;99.90;;;;;;5074298;28;20041;-72
2022/12/19 12:39:48;;;;;;;15.90;11.15;;;7.70;99.90;;;;;;5072640;28;20536;-72
2022/12/19 12:42:38;;;;;;;14.50;11.27;;;7.60;99.90;;;;;;5055690;28;20068;-71
2022/12/19 12:45:26;;;;;;;14.50;10.75;;;7.70;99.90;;;;;;5072522;28;20097;-71
2022/12/19 12:47:52;;;;;;;14.55;10.68;;;7.70;99.90;;;;;;5072144;28;20036;-71
2022/12/19 12:50:21;;;;;;;16.52;11.15;;;7.70;99.90;;;;;;5072397;28;20094;-72
2022/12/19 12:52:53;;;;;;;14.80;10.98;;;7.80;99.90;;;;;;5072408;28;20044;-71
2022/12/19 12:55:22;;;;;;;15.73;11.53;;;7.80;99.90;;;;;;5072338;28;20105;-71
2022/12/19 12:57:47;;;;;;;15.57;11.27;;;7.70;99.90;;;;;;5072114;28;20290;-71
2022/12/19 13:00:29;;;;;;;17.02;11.55;;;7.70;99.90;;;;;;5072352;28;20044;-72
2022/12/19 13:03:15;;;;;;;15.82;11.07;;;7.70;99.90;;;;;;5072070;28;20441;-72
2022/12/19 13:05:53;;;;;;;14.60;11.23;;;7.70;99.90;;;;;;5071932;28;20497;-71
2022/12/19 13:08:44;;;;;;;14.10;11.45;;;7.80;99.90;;;;;;5071999;28;20040;-72